createdAt,value
2023-02-12T00:01:18.079Z,55.70
2023-02-12T00:03:46.585Z,60.30
2023-02-12T00:06:16.111Z,62.25
2023-02-12T00:08:45.200Z,58.70
2023-02-12T00:11:16.445Z,58.78
2023-02-12T00:13:44.909Z,63.10
2023-02-12T00:16:14.744Z,60.42
2023-02-12T00:18:43.497Z,58.85
2023-02-12T00:21:12.679Z,55.42
2023-02-12T00:23:42.237Z,58.03
2023-02-12T00:26:11.008Z,58.53
2023-02-12T00:28:41.115Z,58.42
2023-02-12T00:31:09.982Z,54.28
2023-02-12T00:33:38.681Z,54.63
2023-02-12T00:36:07.732Z,55.60
2023-02-12T00:38:36.233Z,56.40
2023-02-12T00:41:04.856Z,60.03
2023-02-12T00:43:33.331Z,59.08
2023-02-12T00:46:03.357Z,58.67
2023-02-12T00:48:32.093Z,59.60
2023-02-12T00:51:00.990Z,55.80
2023-02-12T00:53:29.461Z,53.85
2023-02-12T00:55:58.383Z,56.45
2023-02-12T00:58:27.112Z,57.10
2023-02-12T01:00:56.221Z,58.90
2023-02-12T01:03:26.422Z,55.28
2023-02-12T01:05:55.603Z,59.50
2023-02-12T01:08:24.557Z,55.20
2023-02-12T01:10:57.063Z,55.67
2023-02-12T01:13:25.992Z,51.38
2023-02-12T01:16:03.351Z,58.55
2023-02-12T01:18:33.185Z,60.35
2023-02-12T01:21:01.581Z,56.92
2023-02-12T01:23:30.020Z,58.03
2023-02-12T01:26:00.817Z,57.53
2023-02-12T01:28:29.308Z,57.58
2023-02-12T01:30:57.940Z,58.88
2023-02-12T01:33:26.556Z,56.15
2023-02-12T01:35:56.501Z,50.75
2023-02-12T01:38:25.258Z,53.28
2023-02-12T01:40:53.826Z,52.45
2023-02-12T01:43:22.524Z,61.72
2023-02-12T01:45:54.626Z,54.38
2023-02-12T01:48:25.279Z,56.10
2023-02-12T01:50:55.086Z,53.08
2023-02-12T01:53:27.322Z,56.55
2023-02-12T01:55:58.703Z,56.10
2023-02-12T01:58:28.618Z,52.85
2023-02-12T02:00:57.052Z,55.80
2023-02-12T02:03:25.572Z,56.60
2023-02-12T02:05:56.990Z,57.42
2023-02-12T02:08:27.508Z,56.30
2023-02-12T02:10:55.909Z,54.85
2023-02-12T02:13:42.218Z,59.28
2023-02-12T02:16:15.227Z,56.55
2023-02-12T02:18:46.350Z,53.58
2023-02-12T02:21:29.592Z,54.75
2023-02-12T02:24:18.841Z,58.22
2023-02-12T02:27:03.815Z,56.33
2023-02-12T02:29:44.166Z,55.47
2023-02-12T02:32:14.851Z,57.33
2023-02-12T02:34:48.651Z,52.22
2023-02-12T02:37:19.703Z,57.33
2023-02-12T02:39:51.309Z,53.17
2023-02-12T02:42:25.661Z,59.58
2023-02-12T02:44:55.844Z,59.08
2023-02-12T02:47:27.684Z,54.78
2023-02-12T02:49:58.161Z,55.67
2023-02-12T02:52:28.973Z,57.35
2023-02-12T02:55:00.304Z,55.83
2023-02-12T02:57:31.646Z,52.58
2023-02-12T03:00:04.157Z,61.42
2023-02-12T03:02:35.921Z,58.97
2023-02-12T03:05:06.208Z,55.42
2023-02-12T03:07:36.824Z,54.38
2023-02-12T03:10:07.380Z,56.53
2023-02-12T03:12:37.360Z,54.60
2023-02-12T03:15:08.210Z,60.78
2023-02-12T03:17:40.511Z,56.22
2023-02-12T03:20:11.829Z,56.63
2023-02-12T03:22:41.661Z,54.80
2023-02-12T03:25:14.852Z,54.05
2023-02-12T03:27:44.773Z,53.17
2023-02-12T03:30:13.790Z,54.60
2023-02-12T03:32:48.385Z,56.90
2023-02-12T03:35:18.553Z,58.58
2023-02-12T03:37:53.381Z,57.10
2023-02-12T03:40:24.214Z,54.28
2023-02-12T03:42:58.432Z,57.40
2023-02-12T03:45:32.158Z,59.97
2023-02-12T03:48:04.808Z,59.45
2023-02-12T03:50:39.158Z,56.25
2023-02-12T03:53:08.014Z,64.55
2023-02-12T03:55:38.264Z,57.53
2023-02-12T03:58:09.484Z,64.57
2023-02-12T04:00:39.386Z,58.85
2023-02-12T04:03:09.793Z,56.00
2023-02-12T04:05:38.382Z,58.70
2023-02-12T04:08:08.988Z,58.13
2023-02-12T04:10:40.656Z,58.38
2023-02-12T04:13:13.416Z,61.30
2023-02-12T04:15:48.869Z,62.75
2023-02-12T04:18:22.618Z,58.92
2023-02-12T04:20:55.626Z,57.97
2023-02-12T04:23:30.528Z,57.50
2023-02-12T04:26:02.094Z,57.78
2023-02-12T04:28:37.058Z,52.63
2023-02-12T04:31:07.348Z,60.95
2023-02-12T04:33:40.835Z,59.83
2023-02-12T04:36:11.117Z,54.75
2023-02-12T04:38:42.520Z,59.28
2023-02-12T04:41:11.278Z,57.88
2023-02-12T04:43:39.993Z,56.67
2023-02-12T04:46:09.767Z,55.22
2023-02-12T04:48:41.734Z,60.38
2023-02-12T04:51:11.661Z,56.10
2023-02-12T04:53:41.061Z,55.35
2023-02-12T04:56:11.040Z,61.00
2023-02-12T04:58:39.433Z,59.95
2023-02-12T05:01:07.986Z,55.63
2023-02-12T05:03:36.444Z,58.92
2023-02-12T05:06:07.019Z,56.13
2023-02-12T05:08:35.483Z,51.55
2023-02-12T05:11:07.784Z,51.00
2023-02-12T05:13:36.237Z,55.72
2023-02-12T05:16:05.779Z,58.97
2023-02-12T05:18:34.332Z,59.75
2023-02-12T05:21:04.289Z,58.83
2023-02-12T05:23:36.334Z,58.35
2023-02-12T05:26:06.396Z,56.15
2023-02-12T05:28:34.950Z,54.22
2023-02-12T05:31:03.763Z,53.30
2023-02-12T05:33:32.448Z,58.30
2023-02-12T05:36:05.352Z,56.38
2023-02-12T05:38:35.187Z,57.90
2023-02-12T05:41:04.399Z,54.90
2023-02-12T05:43:32.845Z,58.60
2023-02-12T05:46:01.653Z,55.40
2023-02-12T05:48:30.155Z,54.67
2023-02-12T05:51:03.989Z,51.83
2023-02-12T05:53:32.642Z,54.45
2023-02-12T05:56:13.040Z,56.38
2023-02-12T05:58:41.662Z,59.78
2023-02-12T06:01:13.875Z,63.28
2023-02-12T06:03:42.444Z,54.17
2023-02-12T06:06:11.056Z,61.42
2023-02-12T06:08:39.757Z,52.10
2023-02-12T06:11:09.643Z,62.75
2023-02-12T06:13:39.544Z,54.00
2023-02-12T06:16:08.680Z,57.40
2023-02-12T06:18:37.412Z,53.83
2023-02-12T06:21:06.004Z,63.70
2023-02-12T06:23:34.420Z,58.58
2023-02-12T06:26:02.992Z,56.22
2023-02-12T06:28:31.533Z,55.13
2023-02-12T06:31:01.497Z,54.53
2023-02-12T06:33:30.045Z,52.28
2023-02-12T06:35:58.739Z,54.25
2023-02-12T06:38:27.275Z,54.75
2023-02-12T06:40:55.694Z,53.58
2023-02-12T06:43:24.132Z,56.33
2023-02-12T06:45:52.532Z,58.80
2023-02-12T06:48:22.354Z,58.25
2023-02-12T06:50:50.787Z,54.20
2023-02-12T06:53:19.216Z,55.75
2023-02-12T06:55:47.704Z,56.40
2023-02-12T06:58:16.129Z,57.85
2023-02-12T07:00:44.616Z,61.03
2023-02-12T07:03:13.064Z,59.63
2023-02-12T07:05:42.972Z,60.50
2023-02-12T07:08:11.718Z,55.33
2023-02-12T07:10:40.104Z,57.70
2023-02-12T07:13:08.530Z,56.38
2023-02-12T07:15:40.581Z,57.38
2023-02-12T07:18:09.015Z,61.75
2023-02-12T07:20:37.443Z,58.72
2023-02-12T07:23:07.288Z,60.35
2023-02-12T07:25:35.703Z,56.20
2023-02-12T07:28:04.190Z,58.95
2023-02-12T07:30:32.739Z,59.58
2023-02-12T07:33:01.179Z,57.20
2023-02-12T07:35:29.585Z,57.53
2023-02-12T07:37:57.987Z,60.70
2023-02-12T07:40:27.855Z,56.83
2023-02-12T07:42:56.903Z,57.25
2023-02-12T07:45:26.190Z,63.17
2023-02-12T07:47:54.669Z,56.78
2023-02-12T07:50:23.155Z,56.33
2023-02-12T07:52:51.675Z,56.88
2023-02-12T07:55:20.172Z,57.47
2023-02-12T07:57:49.956Z,56.08
2023-02-12T08:00:18.835Z,59.30
2023-02-12T08:02:52.707Z,57.15
2023-02-12T08:05:21.261Z,58.00
2023-02-12T08:07:49.683Z,56.47
2023-02-12T08:10:22.283Z,57.53
2023-02-12T08:12:52.080Z,57.35
2023-02-12T08:15:20.537Z,62.15
2023-02-12T08:17:48.933Z,55.55
2023-02-12T08:20:17.559Z,62.50
2023-02-12T08:22:45.970Z,62.15
2023-02-12T08:25:14.406Z,57.92
2023-02-12T08:27:43.275Z,60.88
2023-02-12T08:30:15.428Z,58.33
2023-02-12T08:32:44.017Z,54.90
2023-02-12T08:35:12.481Z,61.67
2023-02-12T08:37:40.886Z,59.92
2023-02-12T08:40:09.752Z,59.20
2023-02-12T08:42:38.171Z,64.05
2023-02-12T08:45:06.907Z,59.83
2023-02-12T08:47:36.696Z,57.08
2023-02-12T08:50:05.163Z,57.42
2023-02-12T08:52:33.567Z,58.00
2023-02-12T08:55:02.593Z,60.60
2023-02-12T08:57:31.001Z,61.83
2023-02-12T08:59:59.471Z,61.63
2023-02-12T09:02:27.923Z,56.53
2023-02-12T09:04:57.807Z,57.35
2023-02-12T09:07:26.240Z,55.67
2023-02-12T09:09:54.667Z,61.42
2023-02-12T09:12:23.082Z,62.30
2023-02-12T09:14:51.926Z,56.72
2023-02-12T09:17:20.361Z,60.95
2023-02-12T09:19:48.921Z,59.92
2023-02-12T09:22:18.771Z,57.95
2023-02-12T09:24:47.211Z,57.45
2023-02-12T09:27:18.347Z,55.97
2023-02-12T09:29:46.932Z,55.33
2023-02-12T09:32:15.423Z,57.30
2023-02-12T09:34:44.038Z,55.45
2023-02-12T09:37:12.614Z,54.15
2023-02-12T09:39:42.428Z,54.50
2023-02-12T09:42:23.205Z,49.35
2023-02-12T09:44:56.671Z,47.95
2023-02-12T09:47:27.833Z,48.65
2023-02-12T09:50:02.589Z,49.72
2023-02-12T09:52:31.568Z,50.92
2023-02-12T09:55:01.641Z,49.05
2023-02-12T09:57:33.597Z,49.20
2023-02-12T10:00:03.777Z,49.70
2023-02-12T10:02:34.920Z,48.78
2023-02-12T10:05:03.580Z,48.38
2023-02-12T10:07:37.543Z,43.50
2023-02-12T10:10:26.938Z,44.40
2023-02-12T10:12:58.803Z,44.05
2023-02-12T10:15:34.097Z,44.70
2023-02-12T10:18:08.258Z,44.33
2023-02-12T10:20:45.210Z,41.22
2023-02-12T10:23:23.095Z,42.30
2023-02-12T10:25:54.327Z,42.53
2023-02-12T10:28:27.113Z,43.75
2023-02-12T10:30:57.388Z,42.83
2023-02-12T10:33:28.615Z,39.22
2023-02-12T10:35:58.435Z,42.72
2023-02-12T10:38:29.816Z,45.28
2023-02-12T10:41:01.898Z,38.78
2023-02-12T10:43:32.002Z,43.20
2023-02-12T10:46:00.515Z,41.75
2023-02-12T10:48:32.156Z,40.83
2023-02-12T10:51:11.531Z,42.22
2023-02-12T10:53:40.908Z,39.22
2023-02-12T10:56:14.267Z,36.72
2023-02-12T10:58:45.154Z,38.55
2023-02-12T11:01:18.604Z,37.42
2023-02-12T11:03:47.120Z,44.15
2023-02-12T11:06:16.801Z,42.65
2023-02-12T11:08:45.855Z,42.90
2023-02-12T11:11:15.721Z,43.65
2023-02-12T11:13:48.813Z,42.33
2023-02-12T11:16:28.419Z,43.53
2023-02-12T11:19:00.223Z,44.10
2023-02-12T11:21:28.844Z,41.80
2023-02-12T11:23:57.993Z,44.08
2023-02-12T11:26:28.002Z,43.08
2023-02-12T11:28:58.975Z,40.28
2023-02-12T11:31:28.489Z,40.88
2023-02-12T11:34:11.240Z,41.92
2023-02-12T11:36:40.817Z,38.47
2023-02-12T11:39:18.519Z,40.85
2023-02-12T11:41:47.071Z,41.80
2023-02-12T11:44:21.336Z,43.22
2023-02-12T11:46:51.052Z,39.22
2023-02-12T11:49:22.154Z,40.63
2023-02-12T11:51:51.165Z,36.72
2023-02-12T11:54:21.799Z,39.15
2023-02-12T11:56:50.447Z,36.92
2023-02-12T11:59:27.094Z,38.22
2023-02-12T12:01:56.665Z,38.17
2023-02-12T12:04:27.625Z,39.53
2023-02-12T12:06:57.753Z,40.22
2023-02-12T12:09:27.712Z,40.58
2023-02-12T12:12:11.406Z,43.42
2023-02-12T12:14:55.650Z,40.88
2023-02-12T12:17:42.860Z,39.17
2023-02-12T12:20:13.362Z,43.72
2023-02-12T12:22:46.311Z,41.78
2023-02-12T12:25:22.774Z,41.10
2023-02-12T12:28:03.804Z,38.30
2023-02-12T12:30:39.632Z,42.08
2023-02-12T12:33:12.027Z,41.45
2023-02-12T12:35:45.232Z,40.53
2023-02-12T12:38:21.242Z,39.15
2023-02-12T12:40:55.653Z,39.38
2023-02-12T12:43:28.363Z,41.30
2023-02-12T12:46:03.366Z,40.92
2023-02-12T12:48:40.774Z,38.67
2023-02-12T12:51:15.843Z,42.30
2023-02-12T12:53:51.125Z,39.22
2023-02-12T12:56:25.279Z,38.47
2023-02-12T12:59:09.533Z,41.58
2023-02-12T13:01:55.599Z,43.05
2023-02-12T13:04:32.737Z,42.78
2023-02-12T13:07:15.226Z,41.13
2023-02-12T13:10:07.492Z,40.20
2023-02-12T13:12:43.376Z,41.13
2023-02-12T13:15:19.374Z,42.78
2023-02-12T13:17:53.619Z,38.25
2023-02-12T13:20:23.837Z,38.90
2023-02-12T13:22:57.047Z,37.78
2023-02-12T13:25:28.779Z,38.78
2023-02-12T13:27:57.787Z,39.92
2023-02-12T13:30:29.052Z,35.20
2023-02-12T13:33:03.405Z,37.33
2023-02-12T13:35:33.058Z,38.63
2023-02-12T13:38:02.445Z,40.28
2023-02-12T13:40:31.820Z,36.53
2023-02-12T13:43:02.474Z,40.28
2023-02-12T13:45:35.634Z,39.35
2023-02-12T13:48:22.060Z,38.55
2023-02-12T13:50:58.911Z,39.78
2023-02-12T13:53:32.452Z,38.22
2023-02-12T13:56:06.421Z,36.00
2023-02-12T13:58:41.590Z,35.30
2023-02-12T14:01:12.600Z,35.85
2023-02-12T14:03:42.544Z,36.10
2023-02-12T14:06:15.046Z,40.13
2023-02-12T14:08:44.904Z,39.10
2023-02-12T14:11:14.878Z,36.35
2023-02-12T14:13:53.424Z,32.78
2023-02-12T14:16:38.145Z,40.42
2023-02-12T14:19:25.073Z,36.75
2023-02-12T14:21:55.050Z,42.25
2023-02-12T14:24:51.191Z,36.28
2023-02-12T14:27:23.695Z,37.15
2023-02-12T14:30:19.104Z,34.97
2023-02-12T14:33:14.599Z,37.95
2023-02-12T14:35:43.939Z,39.00
2023-02-12T14:38:36.924Z,38.58
2023-02-12T14:41:37.569Z,39.80
2023-02-12T14:44:26.782Z,34.53
2023-02-12T14:46:55.839Z,38.47
2023-02-12T14:49:26.784Z,38.92
2023-02-12T14:51:58.420Z,38.33
2023-02-12T14:54:29.818Z,39.47
2023-02-12T14:57:02.399Z,35.10
2023-02-12T14:59:34.094Z,38.65
2023-02-12T15:02:03.739Z,36.70
2023-02-12T15:04:33.565Z,33.60
2023-02-12T15:07:08.340Z,33.28
2023-02-12T15:09:39.115Z,34.15
2023-02-12T15:12:13.282Z,35.15
2023-02-12T15:14:43.976Z,34.97
2023-02-12T15:17:14.472Z,33.85
2023-02-12T15:19:45.284Z,34.25
2023-02-12T15:22:19.527Z,35.13
2023-02-12T15:24:47.983Z,33.05
2023-02-12T15:27:18.328Z,36.95
2023-02-12T15:29:48.465Z,31.48
2023-02-12T15:32:20.894Z,32.58
2023-02-12T15:34:50.823Z,31.65
2023-02-12T15:37:22.225Z,34.45
2023-02-12T15:39:51.477Z,33.42
2023-02-12T15:42:31.577Z,32.35
2023-02-12T15:45:20.390Z,32.75
2023-02-12T15:47:57.008Z,33.58
2023-02-12T15:50:25.583Z,35.28
2023-02-12T15:52:54.150Z,38.47
2023-02-12T15:55:25.198Z,35.22
2023-02-12T15:57:57.086Z,36.90
2023-02-12T16:00:29.913Z,34.72
2023-02-12T16:02:58.391Z,36.72
2023-02-12T16:05:27.710Z,37.60
2023-02-12T16:07:56.634Z,38.75
2023-02-12T16:10:27.218Z,36.65
2023-02-12T16:12:57.188Z,35.28
2023-02-12T16:15:27.488Z,35.72
2023-02-12T16:17:57.136Z,36.05
2023-02-12T16:20:27.208Z,36.50
2023-02-12T16:22:56.060Z,37.95
2023-02-12T16:25:26.541Z,35.45
2023-02-12T16:27:59.346Z,39.78
2023-02-12T16:30:29.741Z,35.10
2023-02-12T16:32:58.746Z,41.42
2023-02-12T16:35:31.399Z,37.38
2023-02-12T16:38:02.026Z,42.40
2023-02-12T16:40:35.519Z,39.83
2023-02-12T16:43:08.750Z,38.47
2023-02-12T16:45:41.464Z,35.55
2023-02-12T16:48:12.035Z,37.75
2023-02-12T16:50:46.087Z,39.58
2023-02-12T16:53:25.317Z,36.15
2023-02-12T16:55:53.927Z,35.60
2023-02-12T16:58:24.873Z,37.80
2023-02-12T17:00:53.963Z,37.15
2023-02-12T17:03:22.484Z,40.30
2023-02-12T17:05:51.997Z,38.55
2023-02-12T17:08:20.984Z,33.80
2023-02-12T17:10:49.388Z,35.95
2023-02-12T17:13:19.037Z,39.60
2023-02-12T17:15:51.536Z,37.95
2023-02-12T17:18:20.232Z,34.13
2023-02-12T17:20:51.224Z,38.13
2023-02-12T17:23:19.693Z,38.45
2023-02-12T17:25:48.113Z,36.20
2023-02-12T17:28:16.827Z,36.42
2023-02-12T17:30:45.493Z,36.50
2023-02-12T17:33:15.314Z,37.33
2023-02-12T17:35:43.795Z,40.78
2023-02-12T17:38:12.268Z,35.67
2023-02-12T17:40:41.072Z,40.90
2023-02-12T17:43:09.655Z,39.15
2023-02-12T17:45:42.788Z,41.15
2023-02-12T17:48:11.344Z,42.47
2023-02-12T17:50:41.530Z,37.97
2023-02-12T17:53:10.094Z,40.33
2023-02-12T17:55:40.545Z,38.80
2023-02-12T17:58:09.487Z,35.83
2023-02-12T18:00:37.905Z,42.28
2023-02-12T18:03:06.397Z,47.65
2023-02-12T18:05:34.828Z,34.88
2023-02-12T18:08:04.727Z,37.75
2023-02-12T18:10:33.186Z,40.63
2023-02-12T18:13:01.610Z,40.00
2023-02-12T18:15:30.058Z,40.72
2023-02-12T18:17:58.558Z,37.53
2023-02-12T18:20:26.955Z,37.00
2023-02-12T18:22:55.567Z,35.40
2023-02-12T18:25:25.420Z,37.17
2023-02-12T18:27:53.930Z,37.85
2023-02-12T18:30:22.708Z,39.38
2023-02-12T18:32:51.196Z,41.75
2023-02-12T18:35:19.931Z,38.53
2023-02-12T18:37:48.774Z,35.38
2023-02-12T18:40:17.217Z,36.67
2023-02-12T18:42:47.048Z,35.30
2023-02-12T18:45:15.490Z,37.92
2023-02-12T18:47:43.938Z,42.45
2023-02-12T18:50:12.721Z,35.03
2023-02-12T18:52:41.247Z,36.00
2023-02-12T18:55:09.975Z,37.70
2023-02-12T18:57:38.390Z,38.47
2023-02-12T19:00:08.975Z,38.75
2023-02-12T19:02:37.441Z,38.97
2023-02-12T19:05:05.914Z,37.85
2023-02-12T19:07:34.377Z,39.75
2023-02-12T19:10:02.827Z,37.35
2023-02-12T19:12:31.288Z,38.35
2023-02-12T19:14:59.689Z,40.95
2023-02-12T19:17:29.525Z,41.75
2023-02-12T19:19:57.931Z,41.03
2023-02-12T19:22:26.400Z,40.03
2023-02-12T19:24:54.821Z,36.75
2023-02-12T19:27:23.268Z,35.15
2023-02-12T19:29:51.677Z,49.03
2023-02-12T19:32:20.215Z,35.83
2023-02-12T19:34:50.123Z,40.80
2023-02-12T19:37:18.677Z,36.22
2023-02-12T19:39:47.104Z,34.65
2023-02-12T19:42:17.284Z,37.65
2023-02-12T19:44:46.741Z,35.58
2023-02-12T19:47:15.501Z,34.35
2023-02-12T19:49:43.941Z,34.13
2023-02-12T19:52:13.754Z,31.90
2023-02-12T19:54:42.278Z,36.70
2023-02-12T19:57:13.467Z,34.25
2023-02-12T19:59:42.258Z,31.83
2023-02-12T20:02:11.435Z,37.03
2023-02-12T20:04:39.927Z,32.95
2023-02-12T20:07:08.911Z,33.30
2023-02-12T20:09:40.087Z,31.20
2023-02-12T20:12:08.691Z,33.55
2023-02-12T20:14:37.132Z,31.75
2023-02-12T20:17:05.842Z,33.05
2023-02-12T20:19:34.378Z,34.50
2023-02-12T20:22:04.608Z,30.73
2023-02-12T20:24:34.324Z,30.85
2023-02-12T20:27:04.671Z,34.42
2023-02-12T20:29:33.135Z,32.70
2023-02-12T20:32:01.878Z,31.40
2023-02-12T20:34:32.890Z,31.15
2023-02-12T20:37:06.750Z,29.17
2023-02-12T20:39:35.193Z,28.83
2023-02-12T20:42:05.018Z,31.23
2023-02-12T20:44:34.202Z,29.90
2023-02-12T20:47:02.974Z,31.30
2023-02-12T20:49:31.451Z,30.80
2023-02-12T20:51:59.884Z,29.27
2023-02-12T20:54:28.351Z,31.80
2023-02-12T20:56:56.751Z,30.15
2023-02-12T20:59:26.587Z,35.13
2023-02-12T21:01:55.042Z,28.48
2023-02-12T21:04:23.560Z,27.63
2023-02-12T21:06:51.961Z,30.02
2023-02-12T21:09:20.571Z,26.65
2023-02-12T21:11:49.368Z,27.27
2023-02-12T21:14:23.664Z,28.33
2023-02-12T21:16:54.166Z,26.85
2023-02-12T21:19:23.156Z,26.50
2023-02-12T21:21:51.815Z,26.00
2023-02-12T21:24:21.727Z,27.20
2023-02-12T21:26:50.367Z,25.77
2023-02-12T21:29:19.169Z,27.02
2023-02-12T21:31:48.516Z,24.42
2023-02-12T21:34:19.595Z,26.38
2023-02-12T21:36:48.622Z,21.77
2023-02-12T21:39:24.343Z,20.88
2023-02-12T21:41:53.727Z,23.55
2023-02-12T21:44:24.760Z,23.55
2023-02-12T21:46:53.387Z,20.70
2023-02-12T21:49:27.899Z,22.17
2023-02-12T21:51:57.742Z,20.00
2023-02-12T21:54:26.329Z,20.45
2023-02-12T21:56:55.017Z,20.33
2023-02-12T21:59:24.772Z,20.58
2023-02-12T22:01:54.200Z,20.83
2023-02-12T22:04:24.112Z,23.23
2023-02-12T22:06:54.027Z,17.33
2023-02-12T22:09:23.546Z,18.85
2023-02-12T22:11:53.171Z,19.95
2023-02-12T22:14:22.611Z,19.35
2023-02-12T22:16:51.146Z,19.75
2023-02-12T22:19:19.720Z,18.77
2023-02-12T22:21:51.729Z,18.98
2023-02-12T22:24:20.366Z,19.73
2023-02-12T22:26:48.947Z,18.65
2023-02-12T22:29:17.658Z,20.20
2023-02-12T22:31:48.864Z,16.92
2023-02-12T22:34:18.744Z,17.95
2023-02-12T22:36:48.901Z,18.23
2023-02-12T22:39:17.975Z,18.25
2023-02-12T22:41:46.905Z,18.67
2023-02-12T22:44:20.047Z,16.27
2023-02-12T22:46:49.658Z,15.73
2023-02-12T22:49:18.622Z,16.70
2023-02-12T22:51:47.295Z,16.50
2023-02-12T22:54:17.777Z,15.70
2023-02-12T22:56:46.739Z,15.57
2023-02-12T22:59:15.192Z,15.82
2023-02-12T23:01:43.782Z,12.95
2023-02-12T23:04:14.559Z,15.40
2023-02-12T23:06:42.995Z,14.63
2023-02-12T23:09:13.334Z,15.77
2023-02-12T23:11:43.129Z,16.88
2023-02-12T23:14:11.571Z,12.63
2023-02-12T23:16:40.200Z,14.88
2023-02-12T23:19:08.624Z,13.80
2023-02-12T23:21:37.056Z,13.20
2023-02-12T23:24:05.686Z,14.55
2023-02-12T23:26:34.141Z,13.45
2023-02-12T23:29:03.941Z,11.25
2023-02-12T23:31:32.506Z,13.98
2023-02-12T23:34:00.949Z,12.68
2023-02-12T23:36:30.601Z,12.07
2023-02-12T23:38:59.370Z,13.32
2023-02-12T23:41:27.815Z,10.90
2023-02-12T23:43:56.282Z,12.00
2023-02-12T23:46:26.218Z,11.77
2023-02-12T23:48:54.674Z,13.57
2023-02-12T23:51:23.101Z,11.25
2023-02-12T23:53:51.678Z,10.80
2023-02-12T23:56:20.456Z,10.82
2023-02-12T23:58:48.897Z,11.98
